Moisie, Canada
Current Conditions -  °F | °C
As of 8:00 PM on Friday 24 Oct 2014 (Local Time) from CYZV Reporting Station
Broken Clouds Broken Clouds  
Wind Chill: 32°   Ceiling: 24000
Heat Index: 36°   Visibility: 15mi
Dew Point: 27°   Wind: 5mph
Humidity: 70%   Direction: 10°N
Pressure: 29.75"   Gusts: NA
Location:  50.19°N, 66.1°W
Report Text: CYZV 250000Z 01004KT 15SM FEW140 BKN240 02/M03 A2975 RMK AC1CI6 SLP078
Loading
Personal Weather Stations






























Interactive Weather Map
Tropical Storm Tracking
New forecast layout! Learn more

10-Day Weather Forecast

Advertisements
Track Severe Weather on mobile